createdAt,value
2023-04-15T00:01:00.031Z,12.03
2023-04-15T00:03:30.950Z,11.94
2023-04-15T00:06:00.070Z,11.99
2023-04-15T00:08:29.143Z,11.96
2023-04-15T00:10:59.578Z,11.96
2023-04-15T00:13:31.029Z,11.95
2023-04-15T00:16:00.038Z,11.94
2023-04-15T00:18:29.914Z,11.95
2023-04-15T00:21:02.448Z,11.93
2023-04-15T00:23:30.849Z,11.89
2023-04-15T00:25:58.976Z,11.90
2023-04-15T00:28:28.420Z,11.93
2023-04-15T00:30:56.474Z,11.85
2023-04-15T00:33:24.491Z,11.90
2023-04-15T00:35:52.223Z,11.88
2023-04-15T00:38:20.077Z,11.88
2023-04-15T00:40:48.222Z,11.83
2023-04-15T00:43:16.444Z,11.76
2023-04-15T00:45:47.159Z,11.69
2023-04-15T00:48:16.357Z,11.62
2023-04-15T00:50:44.073Z,11.56
2023-04-15T00:53:12.372Z,11.50
2023-04-15T00:55:40.541Z,11.47
2023-04-15T00:58:08.378Z,11.46
2023-04-15T01:00:36.566Z,11.43
2023-04-15T01:03:04.450Z,11.41
2023-04-15T01:05:33.653Z,11.45
2023-04-15T01:08:01.861Z,11.43
2023-04-15T01:10:30.818Z,11.40
2023-04-15T01:12:58.526Z,11.37
2023-04-15T01:15:27.510Z,11.35
2023-04-15T01:17:55.743Z,11.31
2023-04-15T01:20:23.458Z,11.28
2023-04-15T01:22:51.499Z,11.28
2023-04-15T01:25:22.523Z,11.21
2023-04-15T01:27:50.254Z,11.24
2023-04-15T01:30:18.439Z,11.22
2023-04-15T01:32:46.630Z,11.28
2023-04-15T01:35:14.374Z,11.30
2023-04-15T01:37:42.154Z,11.33
2023-04-15T01:40:10.322Z,11.40
2023-04-15T01:42:38.410Z,11.40
2023-04-15T01:45:07.165Z,11.48
2023-04-15T01:47:34.844Z,11.50
2023-04-15T01:50:03.201Z,11.53
2023-04-15T01:52:30.918Z,11.53
2023-04-15T01:54:58.664Z,11.50
2023-04-15T01:57:26.425Z,11.41
2023-04-15T01:59:54.210Z,11.28
2023-04-15T02:02:22.828Z,11.21
2023-04-15T02:04:50.672Z,11.16
2023-04-15T02:07:18.314Z,11.10
2023-04-15T02:09:46.177Z,11.06
2023-04-15T02:12:14.468Z,10.99
2023-04-15T02:14:42.227Z,10.89
2023-04-15T02:17:09.938Z,10.90
2023-04-15T02:19:37.749Z,10.87
2023-04-15T02:22:07.310Z,10.84
2023-04-15T02:24:35.535Z,10.80
2023-04-15T02:27:04.222Z,10.76
2023-04-15T02:29:33.006Z,10.77
2023-04-15T02:32:02.096Z,10.75
2023-04-15T02:34:30.405Z,10.69
2023-04-15T02:36:58.993Z,10.71
2023-04-15T02:39:27.374Z,10.65
2023-04-15T02:41:55.408Z,10.63
2023-04-15T02:44:24.890Z,10.59
2023-04-15T02:46:56.636Z,10.56
2023-04-15T02:49:25.640Z,10.52
2023-04-15T02:51:53.351Z,10.55
2023-04-15T02:54:26.749Z,10.57
2023-04-15T02:56:56.152Z,10.53
2023-04-15T02:59:24.045Z,10.53
2023-04-15T03:01:51.793Z,10.53
2023-04-15T03:04:19.652Z,10.45
2023-04-15T03:06:47.492Z,10.43
2023-04-15T03:09:15.681Z,10.33
2023-04-15T03:11:44.183Z,10.29
2023-04-15T03:14:12.067Z,10.30
2023-04-15T03:16:43.505Z,10.31
2023-04-15T03:19:12.084Z,10.35
2023-04-15T03:21:42.333Z,10.37
2023-04-15T03:24:10.686Z,10.35
2023-04-15T03:26:38.879Z,10.39
2023-04-15T03:29:12.410Z,10.38
2023-04-15T03:31:41.730Z,10.40
2023-04-15T03:34:09.411Z,10.38
2023-04-15T03:36:37.620Z,10.39
2023-04-15T03:39:05.552Z,10.38
2023-04-15T03:41:33.477Z,10.38
2023-04-15T03:44:01.451Z,10.36
2023-04-15T03:46:29.183Z,10.36
2023-04-15T03:48:56.894Z,10.38
2023-04-15T03:51:24.610Z,10.42
2023-04-15T03:53:52.292Z,10.42
2023-04-15T03:56:19.981Z,10.39
2023-04-15T03:58:47.586Z,10.35
2023-04-15T04:01:15.416Z,10.29
2023-04-15T04:03:43.265Z,10.24
2023-04-15T04:06:12.460Z,10.19
2023-04-15T04:08:40.289Z,10.07
2023-04-15T04:11:08.062Z,10.02
2023-04-15T04:13:36.029Z,9.97
2023-04-15T04:16:07.150Z,9.91
2023-04-15T04:18:34.961Z,9.90
2023-04-15T04:21:02.843Z,9.82
2023-04-15T04:23:30.606Z,9.84
2023-04-15T04:25:58.266Z,9.78
2023-04-15T04:28:25.991Z,9.79
2023-04-15T04:30:53.762Z,9.78
2023-04-15T04:33:21.527Z,9.82
2023-04-15T04:35:49.229Z,9.83
2023-04-15T04:38:16.991Z,9.83
2023-04-15T04:40:44.788Z,9.82
2023-04-15T04:43:13.312Z,9.83
2023-04-15T04:45:41.167Z,9.77
2023-04-15T04:48:10.462Z,9.83
2023-04-15T04:50:38.226Z,9.86
2023-04-15T04:53:05.995Z,9.88
2023-04-15T04:55:36.836Z,9.88
2023-04-15T04:58:04.561Z,9.80
2023-04-15T05:00:32.522Z,9.82
2023-04-15T05:03:00.806Z,9.81
2023-04-15T05:05:28.890Z,9.78
2023-04-15T05:07:56.543Z,9.79
2023-04-15T05:10:24.281Z,9.73
2023-04-15T05:12:52.577Z,9.74
2023-04-15T05:15:20.381Z,9.66
2023-04-15T05:17:48.182Z,9.70
2023-04-15T05:20:16.002Z,9.63
2023-04-15T05:22:43.754Z,9.59
2023-04-15T05:25:12.434Z,9.62
2023-04-15T05:27:40.543Z,9.61
2023-04-15T05:30:08.967Z,9.56
2023-04-15T05:32:36.820Z,9.49
2023-04-15T05:35:05.022Z,9.48
2023-04-15T05:37:34.629Z,9.44
2023-04-15T05:40:02.609Z,9.48
2023-04-15T05:42:30.439Z,9.48
2023-04-15T05:44:58.282Z,9.46
2023-04-15T05:47:26.392Z,9.47
2023-04-15T05:49:54.307Z,9.55
2023-04-15T05:52:22.054Z,9.54
2023-04-15T05:54:49.761Z,9.60
2023-04-15T05:57:17.597Z,9.67
2023-04-15T05:59:45.338Z,9.73
2023-04-15T06:02:15.451Z,9.76
2023-04-15T06:04:43.128Z,9.82
2023-04-15T06:07:12.042Z,9.88
2023-04-15T06:09:39.724Z,9.94
2023-04-15T06:12:12.093Z,9.97
2023-04-15T06:14:40.575Z,10.02
2023-04-15T06:17:08.543Z,10.05
2023-04-15T06:19:36.794Z,10.16
2023-04-15T06:22:06.826Z,10.22
2023-04-15T06:24:36.983Z,10.24
2023-04-15T06:27:04.846Z,10.32
2023-04-15T06:29:32.558Z,10.39
2023-04-15T06:32:00.606Z,10.45
2023-04-15T06:34:28.335Z,10.52
2023-04-15T06:36:56.039Z,10.66
2023-04-15T06:39:23.722Z,10.80
2023-04-15T06:41:51.416Z,10.95
2023-04-15T06:44:22.448Z,11.05
2023-04-15T06:46:50.467Z,11.21
2023-04-15T06:49:18.206Z,11.38
2023-04-15T06:51:46.211Z,11.56
2023-04-15T06:54:16.203Z,11.68
2023-04-15T06:56:43.832Z,11.88
2023-04-15T06:59:11.553Z,12.09
2023-04-15T07:01:39.215Z,12.26
2023-04-15T07:04:07.607Z,12.42
2023-04-15T07:06:35.667Z,12.57
2023-04-15T07:09:05.537Z,12.71
2023-04-15T07:11:33.520Z,12.84
2023-04-15T07:14:01.412Z,13.00
2023-04-15T07:16:30.464Z,13.10
2023-04-15T07:18:58.277Z,13.26
2023-04-15T07:21:27.637Z,13.36
2023-04-15T07:23:55.525Z,13.46
2023-04-15T07:26:23.579Z,13.52
2023-04-15T07:28:52.146Z,13.63
2023-04-15T07:31:20.005Z,13.72
2023-04-15T07:33:47.718Z,13.83
2023-04-15T07:36:15.440Z,13.96
2023-04-15T07:38:43.151Z,14.04
2023-04-15T07:41:12.261Z,14.10
2023-04-15T07:43:42.558Z,14.16
2023-04-15T07:46:10.417Z,14.34
2023-04-15T07:48:39.265Z,14.44
2023-04-15T07:51:07.817Z,14.50
2023-04-15T07:53:35.628Z,14.61
2023-04-15T07:56:03.467Z,14.71
2023-04-15T07:58:33.561Z,14.78
2023-04-15T08:01:01.315Z,14.90
2023-04-15T08:03:29.171Z,15.02
2023-04-15T08:05:57.414Z,15.06
2023-04-15T08:08:25.803Z,15.21
2023-04-15T08:10:53.604Z,15.25
2023-04-15T08:13:21.778Z,15.32
2023-04-15T08:16:28.442Z,15.39
2023-04-15T08:18:57.108Z,15.38
2023-04-15T08:21:25.469Z,15.44
2023-04-15T08:23:54.549Z,15.52
2023-04-15T08:26:22.680Z,15.60
2023-04-15T08:28:51.274Z,15.67
2023-04-15T08:31:20.178Z,15.76
2023-04-15T08:33:48.375Z,15.85
2023-04-15T08:36:16.265Z,15.93
2023-04-15T08:38:45.604Z,16.01
2023-04-15T08:41:25.773Z,16.18
2023-04-15T08:44:06.620Z,16.24
2023-04-15T08:46:37.779Z,16.29
2023-04-15T08:49:09.484Z,16.34
2023-04-15T08:51:38.040Z,16.45
2023-04-15T08:54:06.498Z,16.58
2023-04-15T08:56:35.012Z,16.61
2023-04-15T08:59:03.958Z,16.74
2023-04-15T09:01:33.227Z,16.82
2023-04-15T09:04:04.280Z,16.94
2023-04-15T09:06:31.954Z,16.98
2023-04-15T09:08:59.946Z,17.06
2023-04-15T09:11:31.394Z,17.07
2023-04-15T09:13:59.413Z,17.18
2023-04-15T09:16:27.566Z,17.26
2023-04-15T09:18:55.662Z,17.34
2023-04-15T09:21:24.732Z,17.45
2023-04-15T09:24:01.853Z,17.57
2023-04-15T09:26:40.453Z,17.64
2023-04-15T09:29:14.780Z,17.71
2023-04-15T09:31:43.441Z,17.77
2023-04-15T09:34:11.674Z,17.81
2023-04-15T09:36:54.897Z,17.98
2023-04-15T09:39:22.851Z,18.04
2023-04-15T09:42:07.474Z,18.17
2023-04-15T09:44:37.958Z,18.24
2023-04-15T09:47:06.485Z,18.29
2023-04-15T09:49:34.274Z,18.34
2023-04-15T09:52:05.986Z,18.45
2023-04-15T09:54:39.145Z,18.52
2023-04-15T09:57:10.214Z,18.55
2023-04-15T09:59:38.594Z,18.60
2023-04-15T10:02:07.493Z,18.65
2023-04-15T10:04:39.685Z,18.70
2023-04-15T10:07:09.835Z,18.75
2023-04-15T10:09:39.551Z,18.79
2023-04-15T10:12:07.549Z,18.78
2023-04-15T10:14:38.457Z,18.90
2023-04-15T10:17:07.787Z,18.91
2023-04-15T10:19:38.451Z,18.96
2023-04-15T10:22:08.303Z,18.95
2023-04-15T10:24:37.311Z,19.03
2023-04-15T10:27:05.772Z,19.10
2023-04-15T10:29:34.249Z,19.18
2023-04-15T10:32:03.745Z,19.23
2023-04-15T10:34:32.846Z,19.33
2023-04-15T10:37:04.523Z,19.41
2023-04-15T10:39:35.124Z,19.47
2023-04-15T10:42:10.844Z,19.56
2023-04-15T10:44:49.673Z,19.66
2023-04-15T10:47:20.198Z,19.72
2023-04-15T10:50:00.444Z,19.81
2023-04-15T10:52:29.644Z,19.86
2023-04-15T10:55:18.369Z,19.93
2023-04-15T10:57:46.211Z,19.93
2023-04-15T11:00:16.418Z,20.08
2023-04-15T11:03:19.175Z,20.16
2023-04-15T11:05:52.469Z,20.16
2023-04-15T11:08:21.356Z,20.14
2023-04-15T11:10:48.970Z,20.21
2023-04-15T11:13:25.119Z,20.25
2023-04-15T11:15:58.318Z,20.29
2023-04-15T11:18:31.326Z,20.34
2023-04-15T11:21:03.490Z,20.38
2023-04-15T11:23:47.007Z,20.47
2023-04-15T11:26:15.768Z,20.51
2023-04-15T11:28:46.674Z,20.55
2023-04-15T11:31:18.206Z,20.57
2023-04-15T11:33:59.037Z,20.65
2023-04-15T11:36:29.269Z,20.71
2023-04-15T11:38:59.507Z,20.73
2023-04-15T11:41:27.501Z,20.74
2023-04-15T11:43:55.318Z,20.74
2023-04-15T11:46:33.419Z,20.78
2023-04-15T11:49:01.644Z,20.77
2023-04-15T11:51:34.507Z,20.81
2023-04-15T11:54:03.194Z,20.80
2023-04-15T11:56:32.039Z,20.80
2023-04-15T11:59:00.316Z,20.79
2023-04-15T12:01:36.351Z,20.74
2023-04-15T12:04:22.579Z,20.79
2023-04-15T12:06:53.447Z,20.82
2023-04-15T12:09:21.712Z,20.93
2023-04-15T12:11:51.691Z,21.02
2023-04-15T12:14:41.109Z,21.07
2023-04-15T12:17:11.428Z,21.07
2023-04-15T12:19:42.271Z,21.11
2023-04-15T12:22:17.585Z,21.14
2023-04-15T12:24:49.449Z,21.18
2023-04-15T12:27:17.697Z,21.21
2023-04-15T12:29:45.576Z,21.29
2023-04-15T12:32:20.849Z,21.28
2023-04-15T12:34:55.164Z,21.28
2023-04-15T12:37:24.099Z,21.21
2023-04-15T12:39:52.288Z,21.18
2023-04-15T12:42:20.944Z,21.21
2023-04-15T12:44:48.587Z,21.28
2023-04-15T12:47:16.358Z,21.31
2023-04-15T12:49:47.084Z,21.29
2023-04-15T12:52:17.031Z,21.40
2023-04-15T12:54:44.786Z,21.42
2023-04-15T12:57:12.453Z,21.42
2023-04-15T12:59:40.514Z,21.38
2023-04-15T13:02:08.929Z,21.29
2023-04-15T13:04:38.687Z,21.20
2023-04-15T13:07:06.575Z,21.16
2023-04-15T13:09:34.358Z,21.11
2023-04-15T13:12:05.342Z,21.06
2023-04-15T13:14:33.074Z,20.94
2023-04-15T13:17:00.816Z,20.89
2023-04-15T13:19:28.626Z,20.77
2023-04-15T13:21:56.321Z,20.66
2023-04-15T13:24:24.087Z,20.59
2023-04-15T13:26:52.087Z,20.51
2023-04-15T13:29:20.147Z,20.44
2023-04-15T13:31:47.957Z,20.36
2023-04-15T13:34:15.707Z,20.34
2023-04-15T13:36:43.379Z,20.20
2023-04-15T13:39:11.295Z,20.23
2023-04-15T13:41:39.067Z,20.21
2023-04-15T13:44:09.094Z,20.17
2023-04-15T13:46:37.789Z,20.15
2023-04-15T13:49:06.079Z,20.12
2023-04-15T13:51:36.030Z,20.07
2023-04-15T13:54:04.235Z,20.01
2023-04-15T13:56:37.888Z,19.96
2023-04-15T13:59:06.645Z,19.96
2023-04-15T14:01:35.364Z,19.93
2023-04-15T14:04:03.306Z,19.94
2023-04-15T14:06:33.345Z,19.93
2023-04-15T14:09:01.192Z,19.93
2023-04-15T14:11:29.960Z,19.94
2023-04-15T14:13:57.674Z,19.87
2023-04-15T14:16:27.520Z,19.84
2023-04-15T14:18:58.008Z,19.81
2023-04-15T14:21:27.841Z,19.83
2023-04-15T14:23:55.776Z,19.81
2023-04-15T14:26:23.452Z,19.83
2023-04-15T14:28:52.686Z,19.90
2023-04-15T14:31:20.721Z,19.90
2023-04-15T14:33:48.502Z,19.95
2023-04-15T14:36:16.279Z,19.99
2023-04-15T14:38:45.776Z,20.00
2023-04-15T14:41:14.729Z,19.99
2023-04-15T14:43:42.407Z,19.97
2023-04-15T14:46:11.545Z,19.93
2023-04-15T14:48:39.345Z,19.91
2023-04-15T14:51:07.329Z,19.86
2023-04-15T14:53:35.062Z,19.86
2023-04-15T14:56:02.888Z,19.87
2023-04-15T14:58:30.877Z,19.88
2023-04-15T15:00:59.067Z,19.86
2023-04-15T15:03:26.982Z,19.86
2023-04-15T15:05:55.089Z,19.84
2023-04-15T15:08:23.134Z,19.81
2023-04-15T15:10:53.042Z,19.86
2023-04-15T15:13:25.624Z,19.88
2023-04-15T15:15:55.512Z,19.85
2023-04-15T15:18:25.485Z,19.86
2023-04-15T15:20:53.265Z,19.86
2023-04-15T15:23:20.973Z,19.86
2023-04-15T15:25:48.841Z,19.82
2023-04-15T15:28:17.444Z,19.75
2023-04-15T15:30:45.552Z,19.65
2023-04-15T15:33:13.264Z,19.57
2023-04-15T15:35:41.129Z,19.51
2023-04-15T15:38:11.171Z,19.42
2023-04-15T15:40:41.167Z,19.36
2023-04-15T15:43:09.235Z,19.27
2023-04-15T15:45:36.971Z,19.19
2023-04-15T15:48:05.803Z,19.19
2023-04-15T15:50:34.781Z,19.13
2023-04-15T15:53:02.577Z,18.99
2023-04-15T15:55:30.529Z,18.86
2023-04-15T15:57:58.287Z,18.79
2023-04-15T16:00:26.341Z,18.72
2023-04-15T16:03:06.162Z,18.62
2023-04-15T16:05:40.511Z,18.57
2023-04-15T16:08:08.324Z,18.48
2023-04-15T16:10:36.088Z,18.46
2023-04-15T16:13:03.865Z,18.39
2023-04-15T16:15:32.518Z,18.40
2023-04-15T16:18:00.659Z,18.39
2023-04-15T16:20:28.910Z,18.33
2023-04-15T16:22:59.398Z,18.20
2023-04-15T16:25:27.210Z,18.00
2023-04-15T16:28:05.536Z,17.94
2023-04-15T16:30:44.173Z,17.82
2023-04-15T16:33:11.879Z,17.71
2023-04-15T16:35:39.583Z,17.61
2023-04-15T16:38:07.335Z,17.48
2023-04-15T16:40:36.660Z,17.31
2023-04-15T16:43:08.203Z,17.02
2023-04-15T16:45:35.900Z,16.97
2023-04-15T16:48:03.828Z,16.96
2023-04-15T16:50:31.689Z,16.96
2023-04-15T16:52:59.459Z,16.91
2023-04-15T16:55:27.492Z,16.85
2023-04-15T16:58:02.772Z,16.80
2023-04-15T17:00:32.823Z,16.75
2023-04-15T17:03:01.263Z,16.68
2023-04-15T17:05:31.824Z,16.65
2023-04-15T17:07:59.829Z,16.56
2023-04-15T17:10:28.202Z,16.50
2023-04-15T17:13:02.141Z,16.45
2023-04-15T17:15:31.436Z,16.35
2023-04-15T17:17:59.285Z,16.39
2023-04-15T17:20:27.282Z,16.34
2023-04-15T17:22:54.980Z,16.36
2023-04-15T17:25:23.544Z,16.31
2023-04-15T17:27:51.204Z,16.30
2023-04-15T17:30:19.935Z,16.26
2023-04-15T17:32:47.923Z,16.21
2023-04-15T17:35:16.308Z,16.17
2023-04-15T17:37:44.028Z,16.14
2023-04-15T17:40:12.400Z,16.10
2023-04-15T17:42:40.608Z,16.08
2023-04-15T17:45:09.206Z,16.03
2023-04-15T17:47:36.949Z,15.96
2023-04-15T17:50:05.269Z,15.88
2023-04-15T17:52:35.437Z,15.79
2023-04-15T17:55:03.190Z,15.72
2023-04-15T17:57:31.161Z,15.64
2023-04-15T17:59:58.982Z,15.60
2023-04-15T18:02:28.030Z,15.51
2023-04-15T18:04:58.044Z,15.50
2023-04-15T18:07:25.823Z,15.43
2023-04-15T18:09:55.987Z,15.39
2023-04-15T18:12:23.875Z,15.36
2023-04-15T18:14:51.617Z,15.33
2023-04-15T18:17:20.230Z,15.33
2023-04-15T18:19:48.248Z,15.33
2023-04-15T18:22:16.114Z,15.30
2023-04-15T18:24:47.246Z,15.29
2023-04-15T18:27:16.100Z,15.10
2023-04-15T18:29:49.100Z,15.14
2023-04-15T18:32:20.091Z,15.19
2023-04-15T18:34:48.574Z,15.17
2023-04-15T18:37:16.841Z,15.17
2023-04-15T18:39:46.008Z,15.16
2023-04-15T18:42:17.064Z,15.16
2023-04-15T18:44:44.927Z,15.06
2023-04-15T18:47:13.784Z,15.02
2023-04-15T18:49:44.595Z,15.04
2023-04-15T18:52:13.150Z,14.91
2023-04-15T18:54:40.933Z,14.96
2023-04-15T18:57:09.063Z,14.95
2023-04-15T18:59:37.059Z,14.88
2023-04-15T19:02:11.863Z,14.97
2023-04-15T19:04:40.180Z,14.95
2023-04-15T19:07:18.728Z,14.94
2023-04-15T19:09:48.203Z,14.98
2023-04-15T19:12:19.013Z,14.95
2023-04-15T19:14:48.272Z,14.91
2023-04-15T19:17:17.565Z,14.93
2023-04-15T19:19:45.953Z,14.89
2023-04-15T19:22:15.629Z,14.85
2023-04-15T19:24:44.062Z,14.84
2023-04-15T19:27:11.859Z,14.77
2023-04-15T19:29:39.643Z,14.83
2023-04-15T19:32:08.017Z,14.80
2023-04-15T19:34:35.790Z,14.71
2023-04-15T19:37:03.587Z,14.74
2023-04-15T19:39:31.376Z,14.71
2023-04-15T19:41:59.507Z,14.70
2023-04-15T19:44:27.208Z,14.67
2023-04-15T19:46:55.363Z,14.76
2023-04-15T19:49:23.232Z,14.73
2023-04-15T19:51:51.294Z,14.69
2023-04-15T19:54:19.032Z,14.65
2023-04-15T19:56:46.685Z,14.70
2023-04-15T19:59:14.995Z,14.74
2023-04-15T20:01:42.959Z,14.75
2023-04-15T20:04:11.131Z,14.66
2023-04-15T20:06:39.372Z,14.67
2023-04-15T20:09:09.001Z,14.55
2023-04-15T20:12:45.888Z,14.60
2023-04-15T20:14:26.668Z,14.57
2023-04-15T20:16:54.429Z,14.57
2023-04-15T20:19:22.891Z,14.57
2023-04-15T20:21:52.540Z,14.56
2023-04-15T20:24:21.772Z,14.57
2023-04-15T20:26:49.422Z,14.57
2023-04-15T20:29:17.262Z,14.59
2023-04-15T20:31:45.132Z,14.63
2023-04-15T20:34:12.907Z,14.63
2023-04-15T20:36:42.404Z,14.60
2023-04-15T20:39:10.206Z,14.57
2023-04-15T20:41:37.921Z,14.56
2023-04-15T20:44:05.761Z,14.60
2023-04-15T20:46:33.427Z,14.58
2023-04-15T20:49:01.191Z,14.54
2023-04-15T20:51:49.448Z,14.60
2023-04-15T20:54:19.526Z,14.58
2023-04-15T20:56:47.198Z,14.61
2023-04-15T20:59:15.027Z,14.56
2023-04-15T21:01:42.860Z,14.59
2023-04-15T21:04:10.708Z,14.60
2023-04-15T21:06:38.396Z,14.62
2023-04-15T21:09:06.351Z,14.59
2023-04-15T21:11:53.246Z,14.57
2023-04-15T21:14:22.299Z,14.57
2023-04-15T21:16:51.853Z,14.58
2023-04-15T21:19:19.646Z,14.58
2023-04-15T21:21:47.331Z,14.56
2023-04-15T21:24:15.009Z,14.63
2023-04-15T21:26:42.735Z,14.60
2023-04-15T21:29:11.956Z,14.64
2023-04-15T21:31:40.804Z,14.63
2023-04-15T21:34:09.227Z,14.65
2023-04-15T21:36:38.301Z,14.58
2023-04-15T21:39:06.391Z,14.66
2023-04-15T21:41:34.220Z,14.61
2023-04-15T21:44:02.196Z,14.68
2023-04-15T21:46:32.841Z,14.65
2023-04-15T21:49:03.490Z,14.62
2023-04-15T21:51:31.599Z,14.70
2023-04-15T21:53:59.688Z,14.66
2023-04-15T21:56:28.523Z,14.70
2023-04-15T21:58:57.955Z,14.69
2023-04-15T22:01:26.783Z,14.68
2023-04-15T22:03:54.896Z,14.68
2023-04-15T22:06:23.006Z,14.67
2023-04-15T22:08:56.869Z,14.67
2023-04-15T22:11:30.399Z,14.64
2023-04-15T22:13:59.004Z,14.57
2023-04-15T22:16:27.715Z,14.60
2023-04-15T22:18:55.832Z,14.67
2023-04-15T22:21:23.869Z,14.67
2023-04-15T22:23:51.951Z,14.65
2023-04-15T22:26:20.539Z,14.71
2023-04-15T22:28:48.263Z,14.68
2023-04-15T22:31:15.999Z,14.71
2023-04-15T22:33:43.640Z,14.68
2023-04-15T22:36:11.538Z,14.67
2023-04-15T22:38:39.251Z,14.68
2023-04-15T22:41:07.070Z,14.67
2023-04-15T22:43:34.805Z,14.66
2023-04-15T22:46:02.794Z,14.66
2023-04-15T22:48:30.693Z,14.68
2023-04-15T22:50:58.422Z,14.71
2023-04-15T22:53:26.411Z,14.69
2023-04-15T22:55:54.212Z,14.67
2023-04-15T22:58:22.065Z,14.73
2023-04-15T23:00:50.195Z,14.75
2023-04-15T23:03:18.206Z,14.75
2023-04-15T23:05:46.714Z,14.66
2023-04-15T23:08:14.529Z,14.74
2023-04-15T23:10:44.622Z,14.76
2023-04-15T23:13:12.364Z,14.69
2023-04-15T23:15:40.588Z,14.75
2023-04-15T23:18:08.357Z,14.74
2023-04-15T23:20:36.758Z,14.73
2023-04-15T23:23:04.518Z,14.69
2023-04-15T23:25:32.295Z,14.71
2023-04-15T23:28:00.233Z,14.71
2023-04-15T23:30:27.990Z,14.71
2023-04-15T23:32:55.865Z,14.68
2023-04-15T23:35:24.490Z,14.75
2023-04-15T23:37:52.223Z,14.74
2023-04-15T23:40:19.983Z,14.79
2023-04-15T23:42:47.756Z,14.77
2023-04-15T23:45:15.519Z,14.77
2023-04-15T23:47:43.225Z,14.80
2023-04-15T23:50:11.283Z,14.84
2023-04-15T23:52:39.245Z,14.77
2023-04-15T23:55:07.858Z,14.87
2023-04-15T23:57:35.528Z,14.87
